International Virtual Aviation Organisation

Russian Federation and Kazakhstan MCD

 

Карточка аэропорта UHPP

Внимание!
Информация на этой странице в стадии наполнения.
Если вы не увидели какой-то информации, или заметили неточность - пожалуйста сообщите нам!
Спасибо!
Команда RU-STAFF
Название аэропортаЕлизово
Название аэропорта (англ.)Yelizovo
Превышение131 ft. (39.9 m.)
Координаты53°10.002', 158°27.24'
Высота перехода2400m
Эшелон переходаQFE>756:FL90;756>QFE>729:FL100;729>QFE:FL110
Коды ответчика6630-6657
Зона ОрВДПетропавловск-Камчатский РПИ (UHPP)
Данные METARUHPP 180700Z 09010G15MPS 9999 DRSN SCT033CB M02/M07 Q0990 R34L/490045 NOSIG RMK QFE739/0986
Проноз погоды (TAF)UHPP 180449Z 1806/1912 10005G15MPS 3100 -SHSN DRSN BKN011 OVC020CB TEMPO 1806/1809 08006G18MPS 0700 +SHSN BLSN VV003 FM180900 10007G18MPS 2000 SHSN BLSN BKN007 OVC020CB TEMPO 1809/1821 08009G25MPS 0500 +SHSN BLSN VV002 FM182100 05006G17MPS 3100 -SHSN DRSN BKN011 BKN020CB TEMPO 1821/1912 0700 +SHSN VV002
NOTAMshow/hide NOTAM
AWOS   TABLE

Информация о ВПП

ВПП Длина ВПП (м.) Покрытие Курс ВПП Частота ILS
34R3400Бетон344110.3
16L3400Бетон164 
34L2500Бетон344 
16R2500Бетон164 

Диспетчерские позиции

Позывной Наименование органа УВД Частота
UHPP_TWRПетропавловск - Старт118.100
UHPP_R_APPПетропавловск - Круг119.400



Спутниковое изображение